sensor_id;sensor_type;location;lat;lon;timestamp;pressure;altitude;pressure_sealevel;temperature
60003;BMP280;46322;52.018;8.702;2023-04-24T00:00:53;98791.91;;;16.54
60003;BMP280;46322;52.018;8.702;2023-04-24T00:06:13;98788.16;;;16.41
60003;BMP280;46322;52.018;8.702;2023-04-24T00:11:34;98786.66;;;16.36
60003;BMP280;46322;52.018;8.702;2023-04-24T00:16:54;98788.69;;;17.62
60003;BMP280;46322;52.018;8.702;2023-04-24T00:22:15;98789.25;;;17.02
60003;BMP280;46322;52.018;8.702;2023-04-24T00:27:35;98781.44;;;17.18
60003;BMP280;46322;52.018;8.702;2023-04-24T00:32:57;98782.03;;;16.99
60003;BMP280;46322;52.018;8.702;2023-04-24T00:38:17;98776.66;;;16.51
60003;BMP280;46322;52.018;8.702;2023-04-24T00:43:39;98777.63;;;17.91
60003;BMP280;46322;52.018;8.702;2023-04-24T00:48:59;98782.38;;;17.42
60003;BMP280;46322;52.018;8.702;2023-04-24T00:54:20;98781.88;;;18.42
60003;BMP280;46322;52.018;8.702;2023-04-24T00:59:41;98767.47;;;17.00
60003;BMP280;46322;52.018;8.702;2023-04-24T01:05:02;98761.22;;;18.12
60003;BMP280;46322;52.018;8.702;2023-04-24T01:10:24;98761.66;;;17.50
60003;BMP280;46322;52.018;8.702;2023-04-24T01:15:46;98756.25;;;16.12
60003;BMP280;46322;52.018;8.702;2023-04-24T01:21:08;98753.94;;;16.77
60003;BMP280;46322;52.018;8.702;2023-04-24T01:26:29;98757.66;;;16.31
60003;BMP280;46322;52.018;8.702;2023-04-24T01:31:50;98740.16;;;16.23
60003;BMP280;46322;52.018;8.702;2023-04-24T01:37:10;98746.22;;;17.23
60003;BMP280;46322;52.018;8.702;2023-04-24T01:42:31;98743.97;;;14.85
60003;BMP280;46322;52.018;8.702;2023-04-24T01:47:52;98748.53;;;14.88
60003;BMP280;46322;52.018;8.702;2023-04-24T01:53:12;98741.56;;;15.54
60003;BMP280;46322;52.018;8.702;2023-04-24T01:58:33;98738.16;;;15.57
60003;BMP280;46322;52.018;8.702;2023-04-24T02:03:53;98737.78;;;15.38
60003;BMP280;46322;52.018;8.702;2023-04-24T02:09:14;98757.13;;;15.84
60003;BMP280;46322;52.018;8.702;2023-04-24T02:14:34;98747.63;;;16.46
60003;BMP280;46322;52.018;8.702;2023-04-24T02:19:55;98756.91;;;14.97
60003;BMP280;46322;52.018;8.702;2023-04-24T02:25:16;98765.59;;;15.61
60003;BMP280;46322;52.018;8.702;2023-04-24T02:30:36;98756.16;;;15.07
60003;BMP280;46322;52.018;8.702;2023-04-24T02:35:57;98751.72;;;15.98
60003;BMP280;46322;52.018;8.702;2023-04-24T02:41:17;98744.47;;;15.99
60003;BMP280;46322;52.018;8.702;2023-04-24T02:46:38;98745.28;;;16.55
60003;BMP280;46322;52.018;8.702;2023-04-24T02:51:59;98748.16;;;16.19
60003;BMP280;46322;52.018;8.702;2023-04-24T02:57:19;98743.19;;;15.06
60003;BMP280;46322;52.018;8.702;2023-04-24T03:02:40;98749.22;;;15.52
60003;BMP280;46322;52.018;8.702;2023-04-24T03:08:00;98741.28;;;14.71
60003;BMP280;46322;52.018;8.702;2023-04-24T03:13:21;98737.00;;;15.55
60003;BMP280;46322;52.018;8.702;2023-04-24T03:18:41;98745.50;;;14.96
60003;BMP280;46322;52.018;8.702;2023-04-24T03:24:02;98738.78;;;15.93
60003;BMP280;46322;52.018;8.702;2023-04-24T03:29:23;98741.16;;;15.67
60003;BMP280;46322;52.018;8.702;2023-04-24T03:34:43;98735.03;;;15.73
60003;BMP280;46322;52.018;8.702;2023-04-24T03:40:04;98743.34;;;16.59
60003;BMP280;46322;52.018;8.702;2023-04-24T03:45:25;98741.91;;;15.81
60003;BMP280;46322;52.018;8.702;2023-04-24T03:50:45;98744.50;;;15.95
60003;BMP280;46322;52.018;8.702;2023-04-24T03:56:06;98743.41;;;15.82
60003;BMP280;46322;52.018;8.702;2023-04-24T04:01:27;98733.16;;;15.70
60003;BMP280;46322;52.018;8.702;2023-04-24T04:06:47;98733.88;;;15.81
60003;BMP280;46322;52.018;8.702;2023-04-24T04:12:08;98741.75;;;16.10
60003;BMP280;46322;52.018;8.702;2023-04-24T04:17:28;98745.09;;;16.21
60003;BMP280;46322;52.018;8.702;2023-04-24T04:22:49;98740.09;;;16.34
60003;BMP280;46322;52.018;8.702;2023-04-24T04:28:10;76601.47;;;-144.30
60003;BMP280;46322;52.018;8.702;2023-04-24T04:33:30;98739.16;;;17.03
60003;BMP280;46322;52.018;8.702;2023-04-24T04:38:51;98737.72;;;16.43
60003;BMP280;46322;52.018;8.702;2023-04-24T04:44:11;98743.13;;;15.59
60003;BMP280;46322;52.018;8.702;2023-04-24T04:49:32;71455.81;;;-144.30
60003;BMP280;46322;52.018;8.702;2023-04-24T04:54:53;98747.25;;;-144.30
60003;BMP280;46322;52.018;8.702;2023-04-24T05:00:13;71455.81;;;-144.30
60003;BMP280;46322;52.018;8.702;2023-04-24T05:05:34;76591.34;;;15.84
60003;BMP280;46322;52.018;8.702;2023-04-24T05:10:55;98777.06;;;16.42
60003;BMP280;46322;52.018;8.702;2023-04-24T05:16:15;98801.28;;;16.14
60003;BMP280;46322;52.018;8.702;2023-04-24T05:21:36;71455.81;;;-144.30
60003;BMP280;46322;52.018;8.702;2023-04-24T05:26:56;71455.81;;;-144.30
60003;BMP280;46322;52.018;8.702;2023-04-24T05:32:17;71455.81;;;-144.30
60003;BMP280;46322;52.018;8.702;2023-04-24T05:37:37;71455.81;;;-144.30
60003;BMP280;46322;52.018;8.702;2023-04-24T05:42:58;71455.81;;;-144.30
60003;BMP280;46322;52.018;8.702;2023-04-24T05:48:19;71455.81;;;-144.30
60003;BMP280;46322;52.018;8.702;2023-04-24T05:53:39;71455.81;;;-144.30
60003;BMP280;46322;52.018;8.702;2023-04-24T05:59:00;71455.81;;;-144.30
60003;BMP280;46322;52.018;8.702;2023-04-24T06:04:20;71455.81;;;-144.30
60003;BMP280;46322;52.018;8.702;2023-04-24T06:09:41;71455.81;;;-144.30
60003;BMP280;46322;52.018;8.702;2023-04-24T06:15:02;71455.81;;;-144.30
60003;BMP280;46322;52.018;8.702;2023-04-24T06:20:23;71455.81;;;-144.30
60003;BMP280;46322;52.018;8.702;2023-04-24T06:25:44;71455.81;;;-144.30
60003;BMP280;46322;52.018;8.702;2023-04-24T06:31:04;71455.81;;;-144.30
60003;BMP280;46322;52.018;8.702;2023-04-24T06:36:25;71455.81;;;-144.30
60003;BMP280;46322;52.018;8.702;2023-04-24T06:41:46;71455.81;;;-144.30
60003;BMP280;46322;52.018;8.702;2023-04-24T06:47:07;71455.81;;;-144.30
60003;BMP280;46322;52.018;8.702;2023-04-24T06:52:28;71455.81;;;-144.30
60003;BMP280;46322;52.018;8.702;2023-04-24T06:57:49;71455.81;;;-144.30
60003;BMP280;46322;52.018;8.702;2023-04-24T07:03:09;71455.81;;;-144.30
60003;BMP280;46322;52.018;8.702;2023-04-24T07:08:30;71455.81;;;-144.30
60003;BMP280;46322;52.018;8.702;2023-04-24T07:13:50;71455.81;;;-144.30
60003;BMP280;46322;52.018;8.702;2023-04-24T07:19:12;71455.81;;;-144.30
60003;BMP280;46322;52.018;8.702;2023-04-24T07:24:33;71455.81;;;-144.30
60003;BMP280;46322;52.018;8.702;2023-04-24T07:29:53;71455.81;;;-144.30
60003;BMP280;46322;52.018;8.702;2023-04-24T07:35:14;71455.81;;;-144.30
60003;BMP280;46322;52.018;8.702;2023-04-24T07:40:35;71455.81;;;-144.30
60003;BMP280;46322;52.018;8.702;2023-04-24T07:45:55;71455.81;;;-144.30
60003;BMP280;46322;52.018;8.702;2023-04-24T07:51:16;71455.81;;;-144.30
60003;BMP280;46322;52.018;8.702;2023-04-24T07:56:37;71455.81;;;-144.30
60003;BMP280;46322;52.018;8.702;2023-04-24T08:01:57;71455.81;;;-144.30
60003;BMP280;46322;52.018;8.702;2023-04-24T08:07:18;71455.81;;;-144.30
60003;BMP280;46322;52.018;8.702;2023-04-24T08:12:38;71455.81;;;-144.30
60003;BMP280;46322;52.018;8.702;2023-04-24T08:17:59;71455.81;;;-144.30
60003;BMP280;46322;52.018;8.702;2023-04-24T08:23:19;71455.81;;;-144.30
60003;BMP280;46322;52.018;8.702;2023-04-24T08:28:40;71455.81;;;-144.30
60003;BMP280;46322;52.018;8.702;2023-04-24T08:34:01;71455.81;;;-144.30
60003;BMP280;46322;52.018;8.702;2023-04-24T08:39:21;71455.81;;;-144.30
60003;BMP280;46322;52.018;8.702;2023-04-24T08:44:42;71455.81;;;-144.30
60003;BMP280;46322;52.018;8.702;2023-04-24T08:50:03;71455.81;;;-144.30
60003;BMP280;46322;52.018;8.702;2023-04-24T08:55:24;71455.81;;;-144.30
60003;BMP280;46322;52.018;8.702;2023-04-24T09:00:45;71455.81;;;-144.30
60003;BMP280;46322;52.018;8.702;2023-04-24T09:06:06;71455.81;;;-144.30
60003;BMP280;46322;52.018;8.702;2023-04-24T09:11:30;71455.81;;;-144.30
60003;BMP280;46322;52.018;8.702;2023-04-24T09:16:50;71455.81;;;-144.30
60003;BMP280;46322;52.018;8.702;2023-04-24T09:22:11;71455.81;;;-144.30
60003;BMP280;46322;52.018;8.702;2023-04-24T09:27:33;71455.81;;;-144.30
60003;BMP280;46322;52.018;8.702;2023-04-24T09:33:12;71455.81;;;-144.30
60003;BMP280;46322;52.018;8.702;2023-04-24T09:38:36;71455.81;;;-144.30
60003;BMP280;46322;52.018;8.702;2023-04-24T09:43:58;71455.81;;;-144.30
60003;BMP280;46322;52.018;8.702;2023-04-24T09:49:31;71455.81;;;-144.30
60003;BMP280;46322;52.018;8.702;2023-04-24T09:54:55;71455.81;;;-144.30
60003;BMP280;46322;52.018;8.702;2023-04-24T10:05:46;71455.81;;;-144.30
60003;BMP280;46322;52.018;8.702;2023-04-24T10:11:07;71455.81;;;-144.30
60003;BMP280;46322;52.018;8.702;2023-04-24T10:16:28;71455.81;;;-144.30
60003;BMP280;46322;52.018;8.702;2023-04-24T10:21:49;71455.81;;;-144.30
60003;BMP280;46322;52.018;8.702;2023-04-24T10:27:10;71455.81;;;-144.30
60003;BMP280;46322;52.018;8.702;2023-04-24T10:32:30;71455.81;;;-144.30
60003;BMP280;46322;52.018;8.702;2023-04-24T10:38:12;71455.81;;;-144.30
60003;BMP280;46322;52.018;8.702;2023-04-24T10:43:33;71455.81;;;-144.30
60003;BMP280;46322;52.018;8.702;2023-04-24T10:48:54;71455.81;;;-144.30
60003;BMP280;46322;52.018;8.702;2023-04-24T10:54:27;71455.81;;;-144.30
60003;BMP280;46322;52.018;8.702;2023-04-24T11:11:13;71455.81;;;-144.30
60003;BMP280;46322;52.018;8.702;2023-04-24T11:16:43;71455.81;;;-144.30
60003;BMP280;46322;52.018;8.702;2023-04-24T11:22:14;71455.81;;;-144.30
60003;BMP280;46322;52.018;8.702;2023-04-24T11:27:44;71455.81;;;-144.30
60003;BMP280;46322;52.018;8.702;2023-04-24T11:33:05;71455.81;;;-144.30
60003;BMP280;46322;52.018;8.702;2023-04-24T11:38:27;71455.81;;;-144.30
60003;BMP280;46322;52.018;8.702;2023-04-24T11:43:47;71455.81;;;-144.30
60003;BMP280;46322;52.018;8.702;2023-04-24T11:49:08;71455.81;;;-144.30
60003;BMP280;46322;52.018;8.702;2023-04-24T11:54:28;71455.81;;;-144.30
60003;BMP280;46322;52.018;8.702;2023-04-24T11:59:49;71455.81;;;-144.30
60003;BMP280;46322;52.018;8.702;2023-04-24T12:05:23;71455.81;;;-144.30
60003;BMP280;46322;52.018;8.702;2023-04-24T12:10:43;71455.81;;;-144.30
60003;BMP280;46322;52.018;8.702;2023-04-24T12:16:04;71455.81;;;-144.30
60003;BMP280;46322;52.018;8.702;2023-04-24T12:21:25;71455.81;;;-144.30
60003;BMP280;46322;52.018;8.702;2023-04-24T12:26:46;71455.81;;;-144.30
60003;BMP280;46322;52.018;8.702;2023-04-24T12:32:16;71455.81;;;-144.30
60003;BMP280;46322;52.018;8.702;2023-04-24T12:37:36;71455.81;;;-144.30
60003;BMP280;46322;52.018;8.702;2023-04-24T12:42:57;71455.81;;;-144.30
60003;BMP280;46322;52.018;8.702;2023-04-24T12:48:17;71455.81;;;-144.30
60003;BMP280;46322;52.018;8.702;2023-04-24T12:53:38;71455.81;;;-144.30
60003;BMP280;46322;52.018;8.702;2023-04-24T12:58:58;71455.81;;;-144.30
60003;BMP280;46322;52.018;8.702;2023-04-24T13:04:19;71455.81;;;-144.30
60003;BMP280;46322;52.018;8.702;2023-04-24T13:09:41;71455.81;;;-144.30
60003;BMP280;46322;52.018;8.702;2023-04-24T13:15:02;71455.81;;;-144.30
60003;BMP280;46322;52.018;8.702;2023-04-24T13:20:22;71455.81;;;-144.30
60003;BMP280;46322;52.018;8.702;2023-04-24T13:25:43;71455.81;;;-144.30
60003;BMP280;46322;52.018;8.702;2023-04-24T13:31:05;71455.81;;;-144.30
60003;BMP280;46322;52.018;8.702;2023-04-24T13:36:26;71455.81;;;-144.30
60003;BMP280;46322;52.018;8.702;2023-04-24T13:41:47;71455.81;;;-144.30
60003;BMP280;46322;52.018;8.702;2023-04-24T13:47:07;71455.81;;;-144.30
60003;BMP280;46322;52.018;8.702;2023-04-24T13:52:28;71455.81;;;-144.30
60003;BMP280;46322;52.018;8.702;2023-04-24T13:57:48;71455.81;;;-144.30
60003;BMP280;46322;52.018;8.702;2023-04-24T14:03:09;71455.81;;;-144.30
60003;BMP280;46322;52.018;8.702;2023-04-24T14:08:30;71455.81;;;-144.30
60003;BMP280;46322;52.018;8.702;2023-04-24T14:13:50;71455.81;;;-144.30
60003;BMP280;46322;52.018;8.702;2023-04-24T14:19:11;71455.81;;;-144.30
60003;BMP280;46322;52.018;8.702;2023-04-24T14:24:31;71455.81;;;-144.30
60003;BMP280;46322;52.018;8.702;2023-04-24T14:29:52;71455.81;;;-144.30
60003;BMP280;46322;52.018;8.702;2023-04-24T14:35:12;71455.81;;;-144.30
60003;BMP280;46322;52.018;8.702;2023-04-24T14:40:33;71455.81;;;-144.30
60003;BMP280;46322;52.018;8.702;2023-04-24T14:45:54;71455.81;;;-144.30
60003;BMP280;46322;52.018;8.702;2023-04-24T14:51:14;71455.81;;;-144.30
60003;BMP280;46322;52.018;8.702;2023-04-24T14:56:35;71455.81;;;-144.30
60003;BMP280;46322;52.018;8.702;2023-04-24T15:01:56;71455.81;;;-144.30
60003;BMP280;46322;52.018;8.702;2023-04-24T15:07:16;71455.81;;;-144.30
60003;BMP280;46322;52.018;8.702;2023-04-24T15:12:37;71455.81;;;-144.30
60003;BMP280;46322;52.018;8.702;2023-04-24T15:17:57;71455.81;;;-144.30
60003;BMP280;46322;52.018;8.702;2023-04-24T15:23:18;71455.81;;;-144.30
60003;BMP280;46322;52.018;8.702;2023-04-24T15:28:39;71455.81;;;-144.30
60003;BMP280;46322;52.018;8.702;2023-04-24T15:33:59;71455.81;;;-144.30
60003;BMP280;46322;52.018;8.702;2023-04-24T15:39:23;71455.81;;;-144.30
60003;BMP280;46322;52.018;8.702;2023-04-24T15:44:43;71455.81;;;-144.30
60003;BMP280;46322;52.018;8.702;2023-04-24T15:50:04;71455.81;;;-144.30
60003;BMP280;46322;52.018;8.702;2023-04-24T15:55:27;71455.81;;;-144.30
60003;BMP280;46322;52.018;8.702;2023-04-24T16:00:48;71455.81;;;-144.30
60003;BMP280;46322;52.018;8.702;2023-04-24T16:06:08;71455.81;;;-144.30
60003;BMP280;46322;52.018;8.702;2023-04-24T16:11:29;71455.81;;;-144.30
60003;BMP280;46322;52.018;8.702;2023-04-24T16:16:49;71455.81;;;-144.30
60003;BMP280;46322;52.018;8.702;2023-04-24T16:22:10;71455.81;;;-144.30
60003;BMP280;46322;52.018;8.702;2023-04-24T16:27:31;71455.81;;;-144.30
60003;BMP280;46322;52.018;8.702;2023-04-24T16:32:51;71455.81;;;-144.30
60003;BMP280;46322;52.018;8.702;2023-04-24T16:38:12;71455.81;;;-144.30
60003;BMP280;46322;52.018;8.702;2023-04-24T16:43:32;71455.81;;;-144.30
60003;BMP280;46322;52.018;8.702;2023-04-24T16:48:53;71455.81;;;-144.30
60003;BMP280;46322;52.018;8.702;2023-04-24T16:54:14;71455.81;;;-144.30
60003;BMP280;46322;52.018;8.702;2023-04-24T16:59:34;71455.81;;;-144.30
60003;BMP280;46322;52.018;8.702;2023-04-24T17:04:55;71455.81;;;-144.30
60003;BMP280;46322;52.018;8.702;2023-04-24T17:10:16;71455.81;;;-144.30
60003;BMP280;46322;52.018;8.702;2023-04-24T17:15:36;71455.81;;;-144.30
60003;BMP280;46322;52.018;8.702;2023-04-24T17:20:57;71455.81;;;-144.30
60003;BMP280;46322;52.018;8.702;2023-04-24T17:26:17;71455.81;;;-144.30
60003;BMP280;46322;52.018;8.702;2023-04-24T17:31:38;71455.81;;;-144.30
60003;BMP280;46322;52.018;8.702;2023-04-24T17:36:58;71455.81;;;-144.30
60003;BMP280;46322;52.018;8.702;2023-04-24T17:42:19;71455.81;;;-144.30
60003;BMP280;46322;52.018;8.702;2023-04-24T17:47:40;71455.81;;;-144.30
60003;BMP280;46322;52.018;8.702;2023-04-24T17:53:00;71455.81;;;-144.30
60003;BMP280;46322;52.018;8.702;2023-04-24T17:58:21;71455.81;;;-144.30
60003;BMP280;46322;52.018;8.702;2023-04-24T18:03:41;71455.81;;;-144.30
60003;BMP280;46322;52.018;8.702;2023-04-24T18:09:02;71455.81;;;-144.30
60003;BMP280;46322;52.018;8.702;2023-04-24T18:14:23;71455.81;;;-144.30
60003;BMP280;46322;52.018;8.702;2023-04-24T18:19:43;71455.81;;;-144.30
60003;BMP280;46322;52.018;8.702;2023-04-24T18:25:04;71455.81;;;-144.30
60003;BMP280;46322;52.018;8.702;2023-04-24T18:30:25;71455.81;;;-144.30
60003;BMP280;46322;52.018;8.702;2023-04-24T18:35:46;71455.81;;;-144.30
60003;BMP280;46322;52.018;8.702;2023-04-24T18:41:06;71455.81;;;-144.30
60003;BMP280;46322;52.018;8.702;2023-04-24T18:46:27;71455.81;;;-144.30
60003;BMP280;46322;52.018;8.702;2023-04-24T18:51:47;71455.81;;;-144.30
60003;BMP280;46322;52.018;8.702;2023-04-24T18:57:08;71455.81;;;-144.30
60003;BMP280;46322;52.018;8.702;2023-04-24T19:02:29;71455.81;;;-144.30
60003;BMP280;46322;52.018;8.702;2023-04-24T19:07:49;71455.81;;;-144.30
60003;BMP280;46322;52.018;8.702;2023-04-24T19:13:10;71455.81;;;-144.30
60003;BMP280;46322;52.018;8.702;2023-04-24T19:18:31;71455.81;;;-144.30
60003;BMP280;46322;52.018;8.702;2023-04-24T19:23:51;71455.81;;;-144.30
60003;BMP280;46322;52.018;8.702;2023-04-24T19:29:12;71455.81;;;-144.30
60003;BMP280;46322;52.018;8.702;2023-04-24T19:34:32;71455.81;;;-144.30
60003;BMP280;46322;52.018;8.702;2023-04-24T19:39:53;71455.81;;;-144.30
60003;BMP280;46322;52.018;8.702;2023-04-24T19:45:14;71455.81;;;-144.30
60003;BMP280;46322;52.018;8.702;2023-04-24T19:50:36;71455.81;;;-144.30
60003;BMP280;46322;52.018;8.702;2023-04-24T19:55:56;71455.81;;;-144.30
60003;BMP280;46322;52.018;8.702;2023-04-24T20:01:17;71455.81;;;-144.30
60003;BMP280;46322;52.018;8.702;2023-04-24T20:06:37;71455.81;;;-144.30
60003;BMP280;46322;52.018;8.702;2023-04-24T20:11:58;71455.81;;;-144.30
60003;BMP280;46322;52.018;8.702;2023-04-24T20:17:25;71455.81;;;-144.30
60003;BMP280;46322;52.018;8.702;2023-04-24T20:22:45;71455.81;;;-144.30
60003;BMP280;46322;52.018;8.702;2023-04-24T20:28:06;71455.81;;;-144.30
60003;BMP280;46322;52.018;8.702;2023-04-24T20:33:26;71455.81;;;-144.30
60003;BMP280;46322;52.018;8.702;2023-04-24T20:38:47;71455.81;;;-144.30
60003;BMP280;46322;52.018;8.702;2023-04-24T20:44:08;71455.81;;;-144.30
60003;BMP280;46322;52.018;8.702;2023-04-24T20:49:28;71455.81;;;-144.30
60003;BMP280;46322;52.018;8.702;2023-04-24T20:54:49;71455.81;;;-144.30
60003;BMP280;46322;52.018;8.702;2023-04-24T21:00:10;71455.81;;;-144.30
60003;BMP280;46322;52.018;8.702;2023-04-24T21:05:31;71455.81;;;-144.30
60003;BMP280;46322;52.018;8.702;2023-04-24T21:10:51;71455.81;;;-144.30
60003;BMP280;46322;52.018;8.702;2023-04-24T21:16:12;71455.81;;;-144.30
60003;BMP280;46322;52.018;8.702;2023-04-24T21:21:32;71455.81;;;-144.30
60003;BMP280;46322;52.018;8.702;2023-04-24T21:26:53;71455.81;;;-144.30
60003;BMP280;46322;52.018;8.702;2023-04-24T21:32:14;71455.81;;;-144.30
60003;BMP280;46322;52.018;8.702;2023-04-24T21:37:34;71455.81;;;-144.30
60003;BMP280;46322;52.018;8.702;2023-04-24T21:42:55;71455.81;;;-144.30
60003;BMP280;46322;52.018;8.702;2023-04-24T21:48:16;71455.81;;;-144.30
60003;BMP280;46322;52.018;8.702;2023-04-24T21:53:36;71455.81;;;-144.30
60003;BMP280;46322;52.018;8.702;2023-04-24T21:58:57;71455.81;;;-144.30
60003;BMP280;46322;52.018;8.702;2023-04-24T22:04:18;71455.81;;;-144.30
60003;BMP280;46322;52.018;8.702;2023-04-24T22:09:38;71455.81;;;-144.30
60003;BMP280;46322;52.018;8.702;2023-04-24T22:14:59;71455.81;;;-144.30
60003;BMP280;46322;52.018;8.702;2023-04-24T22:20:20;71455.81;;;-144.30
60003;BMP280;46322;52.018;8.702;2023-04-24T22:25:40;71455.81;;;-144.30
60003;BMP280;46322;52.018;8.702;2023-04-24T22:31:01;71455.81;;;-144.30
60003;BMP280;46322;52.018;8.702;2023-04-24T22:36:22;71455.81;;;-144.30
60003;BMP280;46322;52.018;8.702;2023-04-24T22:41:42;71455.81;;;-144.30
60003;BMP280;46322;52.018;8.702;2023-04-24T22:47:03;71455.81;;;-144.30
60003;BMP280;46322;52.018;8.702;2023-04-24T22:52:23;71455.81;;;-144.30
60003;BMP280;46322;52.018;8.702;2023-04-24T22:57:44;71455.81;;;-144.30
60003;BMP280;46322;52.018;8.702;2023-04-24T23:03:05;71455.81;;;-144.30
60003;BMP280;46322;52.018;8.702;2023-04-24T23:08:25;71455.81;;;-144.30
60003;BMP280;46322;52.018;8.702;2023-04-24T23:13:46;71455.81;;;-144.30
60003;BMP280;46322;52.018;8.702;2023-04-24T23:19:07;71455.81;;;-144.30
60003;BMP280;46322;52.018;8.702;2023-04-24T23:24:28;71455.81;;;-144.30
60003;BMP280;46322;52.018;8.702;2023-04-24T23:29:48;71455.81;;;-144.30
60003;BMP280;46322;52.018;8.702;2023-04-24T23:35:09;71455.81;;;-144.30
60003;BMP280;46322;52.018;8.702;2023-04-24T23:40:29;71455.81;;;-144.30
60003;BMP280;46322;52.018;8.702;2023-04-24T23:45:50;71455.81;;;-144.30
60003;BMP280;46322;52.018;8.702;2023-04-24T23:51:11;71455.81;;;-144.30
60003;BMP280;46322;52.018;8.702;2023-04-24T23:56:31;71455.81;;;-144.30
